Latest Coastal Weather Observations for Innisfail Aero

IDQ60701

Issued at 5:13 pm EST Wednesday 8 February 2023 (issued every 10 minutes, with the page automatically refreshed every 10 minutes)

About coastal observations | Map of coastal stations | Coastal observations for QLD | Marine services | Other Formats
Station Details ID: 032197 Name: INNISFAIL AERODROME Lat: -17.56 Lon: 146.01 Height: 11.84 m
Data from the previous 72 hours. | See also: Recent months at Innisfail Aero
Date/Time
EST
Wind Sea
Height
m
Swell Vis
km
Cloud Weather Temp
°C
Press
MSL
hPa
Rain since
9am
mm
Dir  Spd
kts
Gust
kts
Height
m
Period
s
Dir
08/05:00pm SSE 13 18 - - - - 10 Partly cloudy - 29.8 1001.8 14.8
08/04:30pm SSE 12 15 - - - - 10 Partly cloudy - 29.6 1001.7 14.8
08/04:00pm S 11 16 - - - - 10 Partly cloudy - 29.0 1001.9 14.8
08/03:30pm S 16 20 - - - - 10 Partly cloudy - 29.8 1002.0 14.8
08/03:00pm S 13 17 - - - - 10 Cloudy - 30.1 1002.2 14.8
08/02:30pm SSE 12 15 - - - - 10 Partly cloudy - 30.6 1002.3 14.8
08/02:00pm SSE 14 19 - - - - 10 Partly cloudy - 30.2 1002.9 14.8
08/01:30pm SSE 15 20 - - - - 10 Partly cloudy - 30.5 1002.9 14.8
08/01:00pm SSE 15 20 - - - - 10 Partly cloudy - 30.3 1003.3 14.8
08/12:30pm S 12 17 - - - - 10 - - 30.0 1003.8 14.8
08/12:00pm S 12 18 - - - - 10 Cloudy Rain 28.7 1004.1 14.8
08/11:36am SSE 9 11 - - - - 10 Partly cloudy - 27.3 1004.5 14.8
08/11:35am SSE 9 11 - - - - 10 Partly cloudy - 26.8 1004.5 14.8
08/11:30am SSE 8 11 - - - - 10 Partly cloudy - 26.7 1004.6 14.8
08/11:16am S 11 15 - - - - 4 Partly cloudy - 26.4 1004.8 14.2
08/11:13am S 9 13 - - - - 5 Partly cloudy - 26.9 1004.7 13.6
08/11:00am SW 8 11 - - - - 10 Partly cloudy - 28.2 1004.6 12.6
08/10:57am SSW 8 10 - - - - 10 Partly cloudy - 28.6 1004.6 12.6
08/10:30am SW 5 8 - - - - 10 Partly cloudy - 27.5 1005.2 12.6
08/10:21am SW 6 8 - - - - 10 Partly cloudy - 26.4 1005.4 12.6
08/10:00am SW 7 9 - - - - 10 Partly cloudy - 25.8 1005.5 12.4
08/09:59am SW 7 9 - - - - 10 Partly cloudy - 25.8 1005.5 12.4
08/09:58am SW 7 9 - - - - 10 Partly cloudy - 25.8 1005.5 12.4
08/09:36am S 8 13 - - - - 2 Partly cloudy - 25.7 1005.8 9.2
08/09:30am S 8 12 - - - - 3 Partly cloudy - 25.8 1006.0 6.8
08/09:28am S 9 14 - - - - 2 Partly cloudy - 25.8 1006.0 5.2
08/09:21am S 11 15 - - - - 2 Partly cloudy - 25.9 1005.9 4.2
08/09:19am S 10 15 - - - - 4 Partly cloudy - 26.1 1005.9 2.8
08/09:08am SSW 8 10 - - - - 10 Partly cloudy - 27.1 1005.7 0.0
08/09:00am SSW 8 11 - - - - 10 Cloudy Showers 26.9 1005.6 13.6
08/08:59am SSW 9 11 - - - - 10 Partly cloudy - 27.1 1005.7 13.6
08/08:30am SW 9 13 - - - - 4 Partly cloudy - 26.3 1005.7 9.6
08/08:29am SW 8 13 - - - - 5 Partly cloudy - 26.3 1005.8 8.2
08/08:00am WSW 5 7 - - - - 10 Partly cloudy - 26.3 1005.4 5.0
08/07:30am SW 5 8 - - - - 7 Partly cloudy - 25.7 1005.4 5.0
08/07:00am NNW 3 5 - - - - 10 Partly cloudy - 25.5 1005.1 3.8
08/06:35am ESE 2 4 - - - - 10 Partly cloudy - 25.3 1004.8 3.4
08/06:30am SE 3 5 - - - - 10 Partly cloudy - 25.3 1004.9 3.4
08/06:20am S 6 8 - - - - 5 Partly cloudy - 25.3 1004.8 3.4
08/06:00am W 5 6 - - - - 10 Partly cloudy Rain 25.1 1004.4 2.2
08/05:59am W 5 6 - - - - 10 Partly cloudy - 25.1 1004.4 2.2
08/05:30am W 4 5 - - - - 10 Partly cloudy - 25.2 1004.1 2.2
08/05:25am SSW 2 5 - - - - 10 Partly cloudy - 25.1 1004.0 2.2
08/05:23am SSE 1 5 - - - - 10 Partly cloudy - 25.1 1004.0 2.2
08/05:08am SSW 2 5 - - - - 5 Partly cloudy - 25.3 1003.9 2.0
08/05:00am NW 5 6 - - - - 10 Partly cloudy - 25.1 1003.7 1.0
08/04:30am W 3 5 - - - - 10 Partly cloudy - 25.2 1003.7 1.0
08/04:20am NW 2 4 - - - - 10 Partly cloudy - 25.4 1003.7 1.0
08/04:00am WSW 4 6 - - - - 10 Partly cloudy - 26.0 1003.8 1.0
08/03:38am ESE 6 11 - - - - 10 Partly cloudy - 25.8 1003.9 1.0
08/03:30am WSW 5 7 - - - - 10 Partly cloudy - 25.8 1003.9 0.8
08/03:00am WSW 5 6 - - - - 10 Cloudy - 25.7 1003.9 0.8
08/02:30am WSW 6 7 - - - - 10 Partly cloudy - 25.8 1004.4 0.8
08/02:00am SW 5 6 - - - - 10 Partly cloudy - 25.8 1004.6 0.8
08/01:30am SSW 6 7 - - - - 10 Partly cloudy - 26.2 1004.8 0.8
08/01:00am SSW 6 9 - - - - 10 Partly cloudy - 26.5 1005.4 0.8
08/12:30am SSW 7 9 - - - - 10 Partly cloudy - 26.3 1005.8 0.8
08/12:00am SW 4 6 - - - - 10 Partly cloudy - 25.7 1006.1 0.8
 
Date/Time
EST
Wind Sea
Height
m
Swell Vis
km
Cloud Weather Temp
°C
Press
MSL
hPa
Rain since
9am
mm
Dir  Spd
kts
Gust
kts
Height
m
Period
s
Dir
07/11:44pm WSW 5 6 - - - - 10 Partly cloudy - 25.7 1006.1 0.8
07/11:30pm WSW 3 8 - - - - 10 Partly cloudy - 25.6 1006.2 0.8
07/11:17pm CALM 0 0 - - - - 10 Partly cloudy - 25.7 1006.5 0.8
07/11:00pm CALM 0 0 - - - - 10 Partly cloudy - 25.9 1006.6 0.8
07/10:57pm CALM 0 0 - - - - 10 Partly cloudy - 25.9 1006.6 0.8
07/10:47pm CALM 0 3 - - - - 10 Partly cloudy - 25.8 1006.7 0.8
07/10:30pm SE 6 11 - - - - 9 Partly cloudy - 25.9 1007.0 0.6
07/10:00pm WSW 3 4 - - - - 10 Partly cloudy - 26.0 1006.6 0.0
07/09:30pm SW 5 7 - - - - 10 Partly cloudy - 26.4 1006.7 0.0
07/09:00pm SW 5 6 - - - - 10 Partly cloudy - 26.1 1006.3 0.0
07/08:30pm SW 5 6 - - - - 10 Partly cloudy - 26.5 1006.0 0.0
07/08:00pm SSW 4 4 - - - - 10 Partly cloudy - 26.8 1006.1 0.0
07/07:30pm SSW 5 6 - - - - 10 Partly cloudy - 27.4 1005.7 0.0
07/07:00pm S 8 10 - - - - 10 Partly cloudy - 27.9 1005.4 0.0
07/06:30pm S 8 12 - - - - 10 Partly cloudy - 28.6 1004.8 0.0
07/06:00pm S 10 13 - - - - 10 Mostly clear - 29.2 1004.6 0.0
07/05:30pm SSE 11 14 - - - - 10 Partly cloudy - 29.9 1004.4 0.0
07/05:00pm SSE 13 17 - - - - 10 Partly cloudy - 29.5 1004.5 0.0
07/04:30pm SSE 13 16 - - - - 10 Partly cloudy - 30.8 1004.5 0.0
07/04:00pm SSE 13 17 - - - - 10 Partly cloudy - 30.8 1004.6 0.0
07/03:30pm S 13 16 - - - - 10 Partly cloudy - 30.8 1004.7 0.0
07/03:00pm S 14 20 - - - - 10 Cloudy Rain 30.5 1004.8 0.0
07/02:30pm S 12 16 - - - - 10 Partly cloudy - 29.1 1004.9 0.0
07/02:00pm SSE 11 15 - - - - 10 Partly cloudy - 31.1 1005.0 0.0
07/01:30pm S 10 15 - - - - 10 Partly cloudy - 31.1 1005.5 0.0
07/01:00pm SSE 11 15 - - - - 10 Partly cloudy - 30.7 1005.7 0.0
07/12:30pm SSE 11 15 - - - - 10 - - 30.7 1006.2 0.0
07/12:00pm SSE 10 15 - - - - 10 Partly cloudy - 30.6 1006.6 0.0
07/11:30am S 10 14 - - - - 10 Partly cloudy - 29.7 1007.0 0.0
07/11:00am S 13 16 - - - - 10 Partly cloudy - 29.9 1007.1 0.0
07/10:30am S 11 14 - - - - 10 Partly cloudy - 31.4 1007.4 0.0
07/10:00am S 12 16 - - - - 10 Partly cloudy - 30.2 1007.6 0.0
07/09:30am S 9 12 - - - - 10 Partly cloudy - 29.2 1007.6 0.0
07/09:00am SW 3 5 - - - - 10 Cloudy - 28.5 1007.7 11.4
07/08:30am WSW 3 5 - - - - 10 Partly cloudy - 27.9 1007.7 11.4
07/08:00am NW 3 4 - - - - 10 Partly cloudy - 27.0 1007.4 11.4
07/07:30am NW 3 4 - - - - 10 Partly cloudy - 26.1 1007.3 11.4
07/07:11am N 1 4 - - - - 10 Partly cloudy - 25.3 1007.3 11.4
07/07:01am ENE 4 6 - - - - 10 Partly cloudy - 25.1 1007.2 11.4
07/07:00am ENE 5 6 - - - - 10 Partly cloudy - 25.1 1007.3 11.4
07/06:30am CALM 0 0 - - - - 10 Partly cloudy - 24.7 1006.9 11.0
07/06:00am W 3 5 - - - - 10 Partly cloudy - 24.4 1006.6 11.0
07/05:30am CALM 0 0 - - - - 6 Partly cloudy - 24.4 1006.2 11.0
07/05:04am W 2 3 - - - - 10 Partly cloudy - 24.9 1006.2 11.0
07/05:00am W 2 3 - - - - 10 Partly cloudy - 24.9 1006.2 11.0
07/04:30am W 4 6 - - - - 10 Partly cloudy - 24.9 1006.2 11.0
07/04:23am W 5 7 - - - - 10 Partly cloudy - 24.8 1006.2 11.0
07/04:00am CALM 0 0 - - - - 10 Partly cloudy - 24.9 1006.3 11.0
07/03:30am CALM 0 0 - - - - 8 Partly cloudy - 24.7 1006.2 11.0
07/03:00am N 3 4 - - - - 9 Cloudy - 24.8 1006.2 11.0
07/02:30am CALM 0 0 - - - - 10 Partly cloudy - 25.0 1006.4 11.0
07/02:00am WSW 5 5 - - - - 10 Partly cloudy - 25.4 1006.7 11.0
07/01:30am WSW 5 6 - - - - 10 Partly cloudy - 25.2 1006.8 11.0
07/01:00am WSW 5 6 - - - - 10 Partly cloudy - 25.2 1007.3 11.0
07/12:30am SW 5 6 - - - - 10 Partly cloudy - 25.3 1007.7 11.0
07/12:00am SSW 4 5 - - - - 10 Partly cloudy - 25.6 1008.0 11.0
 
Date/Time
EST
Wind Sea
Height
m
Swell Vis
km
Cloud Weather Temp
°C
Press
MSL
hPa
Rain since
9am
mm
Dir  Spd
kts
Gust
kts
Height
m
Period
s
Dir
06/11:30pm SW 4 5 - - - - 10 Partly cloudy - 25.8 1008.2 11.0
06/11:00pm SW 5 5 - - - - 10 Partly cloudy - 26.0 1008.4 11.0
06/10:30pm S 3 4 - - - - 10 Partly cloudy - 26.2 1008.4 11.0
06/10:12pm ESE 3 5 - - - - 10 Partly cloudy - 26.5 1008.4 11.0
06/10:00pm S 4 10 - - - - 6 Partly cloudy - 26.5 1008.4 11.0
06/09:58pm SSW 2 10 - - - - 6 Partly cloudy - 26.4 1008.4 10.8
06/09:30pm SW 4 5 - - - - 10 - - 26.4 1008.3 10.0
06/09:08pm S 6 7 - - - - 10 Partly cloudy - 26.5 1008.1 10.0
06/09:00pm SSE 6 7 - - - - 10 Cloudy Showers 26.6 1007.9 10.0
06/08:50pm SE 5 9 - - - - 5 Partly cloudy - 26.5 1008.0 9.8
06/08:30pm SSW 6 7 - - - - 10 Partly cloudy - 26.5 1007.7 7.4
06/08:00pm S 4 5 - - - - 10 Partly cloudy - 26.5 1007.7 7.4
06/07:30pm SE 8 14 - - - - 10 Partly cloudy - 26.6 1007.4 7.4
06/07:00pm S 3 4 - - - - 10 Partly cloudy - 26.9 1006.9 7.2
06/06:30pm S 5 7 - - - - 10 Partly cloudy - 26.9 1006.6 7.2
06/06:28pm S 5 8 - - - - 10 Partly cloudy - 26.9 1006.5 7.2
06/06:08pm ESE 9 21 - - - - 5 Partly cloudy - 27.4 1006.6 6.8
06/06:00pm ESE 6 8 - - - - 10 Mostly cloudy - 29.7 1006.3 2.6
06/05:30pm ESE 10 14 - - - - 10 Partly cloudy - 30.0 1006.2 2.6
06/05:00pm ESE 9 12 - - - - 10 Partly cloudy - 30.3 1006.1 2.6
06/04:30pm SE 9 13 - - - - 10 Partly cloudy - 30.7 1006.3 2.6
06/04:00pm SSE 9 13 - - - - 10 Partly cloudy - 30.7 1006.3 2.6
06/03:30pm SE 9 13 - - - - 10 Partly cloudy - 31.3 1006.5 2.4
06/03:00pm SE 10 15 - - - - 10 Cloudy - 31.5 1006.7 2.4
06/02:30pm SE 9 12 - - - - 10 Partly cloudy - 31.7 1006.6 2.4
06/02:00pm ESE 8 13 - - - - 10 Partly cloudy - 30.9 1006.9 2.4
06/01:30pm ESE 5 11 - - - - 10 Partly cloudy - 30.9 1007.0 2.2
06/01:00pm S 3 5 - - - - 10 Partly cloudy - 28.9 1007.5 2.2
06/12:50pm NNE 3 6 - - - - 10 Partly cloudy - 27.1 1007.6 2.2
06/12:33pm E 12 20 - - - - 5 Partly cloudy - 26.9 1008.1 2.0
06/12:30pm E 13 20 - - - - 9 Partly cloudy - 27.0 1008.2 1.2
06/12:00pm SE 9 12 - - - - 10 Cloudy - 31.5 1008.1 0.2
06/11:30am SE 10 13 - - - - 10 Partly cloudy - 31.0 1008.5 0.2
06/11:00am ESE 9 13 - - - - 10 Partly cloudy - 31.0 1008.9 0.2
06/10:30am SE 10 15 - - - - 10 Partly cloudy - 30.8 1009.0 0.2
06/10:00am SSW 7 9 - - - - 10 Partly cloudy - 29.6 1009.1 0.0
06/09:30am S 4 6 - - - - 10 Partly cloudy - 28.4 1009.2 0.0
06/09:00am S 7 9 - - - - 10 Cloudy Showers 27.5 1009.4 4.8
06/08:56am S 7 8 - - - - 10 Partly cloudy - 27.6 1009.4 4.8
06/08:30am S 7 9 - - - - 10 Partly cloudy - 27.3 1009.4 4.6
06/08:08am SSW 6 8 - - - - 10 Partly cloudy - 26.8 1009.2 4.6
06/08:00am SSW 5 7 - - - - 10 Partly cloudy - 26.9 1009.1 4.4
06/07:30am SSW 7 8 - - - - 10 Partly cloudy - 26.2 1008.8 4.4
06/07:07am SSW 7 9 - - - - 10 Partly cloudy - 25.9 1008.6 4.4
06/07:00am SSW 6 8 - - - - 10 Partly cloudy - 25.9 1008.7 4.4
06/06:30am S 3 5 - - - - 10 Partly cloudy - 25.4 1008.6 4.4
06/06:00am CALM 0 0 - - - - 10 Cloudy Showers 25.1 1008.0 4.4
06/05:59am CALM 0 0 - - - - 10 Partly cloudy - 25.1 1008.0 4.4
06/05:38am CALM 0 0 - - - - 10 Partly cloudy - 25.0 1007.7 4.2
06/05:30am CALM 0 3 - - - - 10 Partly cloudy - 25.0 1007.5 4.2
06/05:00am WSW 3 4 - - - - 10 Partly cloudy - 24.9 1007.1 4.2
06/04:57am WSW 3 4 - - - - 10 Partly cloudy - 24.9 1007.1 4.2
06/04:30am SW 4 5 - - - - 10 Partly cloudy - 24.9 1007.0 4.2
06/04:00am W 3 4 - - - - 10 - - 25.2 1007.1 4.2
06/03:30am W 4 5 - - - - 10 Partly cloudy - 25.4 1006.8 4.2
06/03:27am W 4 5 - - - - 10 Partly cloudy - 25.4 1006.8 4.2
06/03:08am NW 2 5 - - - - 10 Partly cloudy - 25.3 1007.0 4.2
06/03:05am WNW 2 5 - - - - 10 Partly cloudy - 25.3 1007.0 4.2
06/03:00am WNW 3 5 - - - - 10 Partly cloudy - 25.4 1006.8 4.2
06/02:43am W 3 4 - - - - 10 Partly cloudy - 25.4 1006.9 4.2
06/02:30am WSW 3 4 - - - - 10 Partly cloudy - 25.4 1006.6 4.2
06/02:18am WNW 1 4 - - - - 10 Partly cloudy - 25.5 1006.7 4.2
06/02:00am WNW 2 3 - - - - 5 Partly cloudy - 25.2 1006.7 4.2
06/01:55am WNW 3 3 - - - - 10 Partly cloudy - 25.4 1006.7 4.2
06/01:39am WNW 3 4 - - - - 10 Partly cloudy - 25.6 1006.8 4.2
06/01:30am WNW 3 3 - - - - 10 Partly cloudy - 25.6 1006.8 4.2
06/01:00am SW 3 4 - - - - 10 Partly cloudy - 25.9 1007.5 4.2
06/12:30am SW 4 5 - - - - 10 Partly cloudy - 26.0 1007.8 4.2
06/12:00am WSW 5 6 - - - - 10 Cloudy - 26.0 1007.9 4.2
 
Date/Time
EST
Wind Sea
Height
m
Swell Vis
km
Cloud Weather Temp
°C
Press
MSL
hPa
Rain since
9am
mm
Dir  Spd
kts
Gust
kts
Height
m
Period
s
Dir
05/11:30pm W 4 5 - - - - 10 Partly cloudy - 26.1 1008.0 4.2
05/11:00pm WNW 3 4 - - - - 10 Partly cloudy - 26.2 1008.2 4.2
05/10:30pm WNW 4 5 - - - - 10 Partly cloudy - 26.3 1008.2 4.2
05/10:00pm CALM 0 0 - - - - 10 Partly cloudy - 26.1 1008.2 4.2
05/09:30pm CALM 0 3 - - - - 10 Partly cloudy - 26.1 1007.8 4.0
05/09:05pm N 5 7 - - - - 10 Partly cloudy - 26.3 1007.5 4.0
05/09:00pm N 6 8 - - - - 10 Cloudy Rain 26.3 1007.5 4.0
05/08:52pm N 5 8 - - - - 4 Partly cloudy - 26.5 1007.4 3.8
05/08:47pm NNE 4 8 - - - - 5 Partly cloudy - 26.7 1007.4 3.6
05/08:38pm NE 6 8 - - - - 10 Partly cloudy - 27.1 1007.2 1.6
05/08:30pm ESE 4 7 - - - - 10 Partly cloudy - 27.3 1007.1 1.6
05/08:00pm E 3 4 - - - - 10 Partly cloudy - 27.1 1006.8 1.6
05/07:30pm E 5 6 - - - - 10 Partly cloudy - 27.3 1006.6 1.6
05/07:00pm E 5 7 - - - - 10 Partly cloudy - 27.9 1006.4 1.6
05/06:30pm E 7 10 - - - - 10 Partly cloudy - 28.4 1005.9 1.6
05/06:00pm E 7 10 - - - - 10 Cloudy - 29.2 1005.4 1.6
05/05:30pm E 8 10 - - - - 10 Partly cloudy - 29.5 1005.1 1.6

Other formats

Comma delimited format used in spreadsheet applications
http://www.bom.gov.au/fwo/IDQ60701/IDQ60701.94280.axf

JavaScript Object Notation format (JSON) in row-major order
http://www.bom.gov.au/fwo/IDQ60701/IDQ60701.94280.json

Data quality

Most of these data are generated automatically and are frequently updated. Quality checks on data are not normally performed. It is possible for incorrect values to appear. Refer to information at About Latest Weather Observations and please check the disclaimer before using these data.